Time;durP1;ratioP1;P1;durP2;ratioP2;P2;SDS_P1;SDS_P2;PMS_P1;PMS_P2;Temp;Humidity;BMP_temperature;BMP_pressure;BME280_temperature;BME280_humidity;BME280_pressure;Samples;Min_cycle;Max_cycle;Signal;HPM_P1;HPM_P2
2021/08/04 00:01:56;;;;;;;2.30;2.10;;;23.20;56.30;;;;;;5099294;28;20287;-71
2021/08/04 00:04:30;;;;;;;1.77;1.67;;;23.20;56.30;;;;;;5096191;28;20193;-71
2021/08/04 00:07:03;;;;;;;2.03;1.93;;;23.10;56.20;;;;;;5097163;27;20265;-71
2021/08/04 00:09:38;;;;;;;2.13;2.03;;;23.10;56.30;;;;;;5104543;28;20220;-71
2021/08/04 00:12:12;;;;;;;1.57;1.47;;;23.10;56.20;;;;;;5101597;28;20192;-71
2021/08/04 00:14:41;;;;;;;2.30;2.10;;;23.10;56.20;;;;;;5100914;28;20226;-71
2021/08/04 00:17:23;;;;;;;2.20;2.00;;;23.10;56.30;;;;;;5098192;28;20204;-72
2021/08/04 00:19:54;;;;;;;2.30;2.10;;;23.10;56.20;;;;;;5103639;28;20215;-71
2021/08/04 00:22:26;;;;;;;2.10;2.00;;;23.10;56.30;;;;;;5098253;28;20196;-71
2021/08/04 00:24:59;;;;;;;1.90;1.77;;;23.10;56.20;;;;;;5103705;28;20203;-71
2021/08/04 00:27:30;;;;;;;1.77;1.67;;;23.10;56.30;;;;;;5104480;28;20207;-71
2021/08/04 00:30:00;;;;;;;1.87;1.77;;;23.10;56.20;;;;;;5099093;28;20680;-71
2021/08/04 00:32:32;;;;;;;1.87;1.77;;;23.10;56.20;;;;;;5089200;28;20192;-72
2021/08/04 00:35:04;;;;;;;2.00;1.90;;;23.10;56.20;;;;;;5101153;28;20214;-71
2021/08/04 00:37:36;;;;;;;2.00;1.90;;;23.10;56.20;;;;;;5099812;28;20526;-71
2021/08/04 00:40:08;;;;;;;1.93;1.83;;;23.10;56.20;;;;;;5099977;28;20203;-71
2021/08/04 00:42:47;;;;;;;1.97;1.70;;;23.10;56.20;;;;;;5094360;28;20189;-71
2021/08/04 00:45:18;;;;;;;2.10;1.90;;;23.00;56.10;;;;;;5100747;28;20644;-71
2021/08/04 00:47:50;;;;;;;1.80;1.70;;;23.00;56.20;;;;;;5105888;28;20211;-71
2021/08/04 00:50:19;;;;;;;1.87;1.73;;;23.00;56.20;;;;;;5091414;28;20204;-72
2021/08/04 00:52:49;;;;;;;1.70;1.60;;;23.00;56.20;;;;;;5102549;28;20270;-71
2021/08/04 00:55:22;;;;;;;2.00;1.90;;;23.00;56.20;;;;;;5103414;28;20200;-71
2021/08/04 00:57:52;;;;;;;1.60;1.50;;;23.00;56.20;;;;;;5081185;28;20239;-71
2021/08/04 01:00:22;;;;;;;2.03;1.90;;;23.00;56.20;;;;;;5088284;28;20683;-71
2021/08/04 01:03:01;;;;;;;1.97;1.87;;;23.00;56.20;;;;;;5099553;28;20577;-72
2021/08/04 01:05:57;;;;;;;2.03;1.93;;;23.00;56.20;;;;;;5101606;28;20212;-72
2021/08/04 01:08:35;;;;;;;1.73;1.63;;;23.00;56.20;;;;;;5100859;28;20507;-71
2021/08/04 01:11:16;;;;;;;1.80;1.70;;;23.00;56.20;;;;;;5103860;28;20289;-71
2021/08/04 01:13:51;;;;;;;2.07;1.97;;;23.00;56.20;;;;;;5101994;28;20185;-71
2021/08/04 01:16:34;;;;;;;1.57;1.47;;;23.00;56.30;;;;;;5103381;28;21729;-72
2021/08/04 01:19:51;;;;;;;1.83;1.73;;;22.90;56.20;;;;;;5091469;28;20481;-71
2021/08/04 01:22:29;;;;;;;1.70;1.60;;;23.00;56.20;;;;;;5101569;27;20683;-71
2021/08/04 01:25:19;;;;;;;1.90;1.80;;;22.90;56.20;;;;;;5111106;28;20563;-71
2021/08/04 01:28:11;;;;;;;2.10;1.90;;;22.90;56.20;;;;;;5105335;28;20192;-71
2021/08/04 01:30:41;;;;;;;2.00;1.90;;;22.90;56.20;;;;;;5095096;28;20249;-71
2021/08/04 01:33:12;;;;;;;1.90;1.80;;;22.90;56.20;;;;;;5097264;28;20273;-71
2021/08/04 01:35:48;;;;;;;1.80;1.70;;;22.90;56.20;;;;;;5103981;28;20677;-71
2021/08/04 01:38:24;;;;;;;2.13;1.80;;;22.90;56.30;;;;;;5106673;28;20208;-71
2021/08/04 01:40:55;;;;;;;2.60;1.80;;;22.90;56.30;;;;;;5084277;28;20205;-71
2021/08/04 01:43:27;;;;;;;1.60;1.50;;;22.90;56.30;;;;;;5097454;27;20211;-71
2021/08/04 01:46:00;;;;;;;1.93;1.73;;;22.90;56.30;;;;;;5099824;28;20185;-71
2021/08/04 01:48:40;;;;;;;1.80;1.70;;;22.90;56.30;;;;;;5108629;28;20208;-71
2021/08/04 01:51:13;;;;;;;1.80;1.70;;;22.90;56.30;;;;;;5099598;28;20886;-71
2021/08/04 01:53:44;;;;;;;1.70;1.60;;;22.90;56.20;;;;;;5067861;28;20455;-71
2021/08/04 01:56:16;;;;;;;2.03;1.90;;;22.90;56.30;;;;;;5108383;28;20560;-71
2021/08/04 01:58:46;;;;;;;1.80;1.70;;;22.80;56.20;;;;;;5103038;28;20197;-72
2021/08/04 02:01:15;;;;;;;1.60;1.50;;;22.80;56.20;;;;;;5107298;28;20815;-71
2021/08/04 02:03:44;;;;;;;1.70;1.60;;;22.90;56.30;;;;;;5107413;28;20219;-71
2021/08/04 02:06:35;;;;;;;1.70;1.60;;;22.80;56.20;;;;;;5107278;28;20200;-71
2021/08/04 02:09:43;;;;;;;1.70;1.60;;;22.80;56.30;;;;;;5104809;28;20184;-71
2021/08/04 02:12:12;;;;;;;1.90;1.80;;;22.80;56.30;;;;;;5107040;28;20200;-71
2021/08/04 02:15:01;;;;;;;1.70;1.60;;;22.80;56.30;;;;;;5105930;28;20216;-72
2021/08/04 02:18:01;;;;;;;1.63;1.53;;;22.80;56.30;;;;;;5100059;28;20216;-71
2021/08/04 02:20:45;;;;;;;1.60;1.50;;;22.80;56.30;;;;;;5091515;28;20233;-71
2021/08/04 02:23:28;;;;;;;1.87;1.77;;;22.80;56.30;;;;;;5102116;28;20222;-71
2021/08/04 02:26:10;;;;;;;1.57;1.47;;;22.80;56.30;;;;;;5110597;28;20773;-71
2021/08/04 02:28:50;;;;;;;1.60;1.50;;;22.80;56.40;;;;;;5101955;28;20621;-71
2021/08/04 02:31:44;;;;;;;1.67;1.57;;;22.70;56.30;;;;;;5105222;28;20204;-71
2021/08/04 02:34:15;;;;;;;1.50;1.40;;;22.80;56.30;;;;;;5104116;28;20208;-71
2021/08/04 02:36:47;;;;;;;1.50;1.40;;;22.70;56.30;;;;;;5103514;28;20224;-71
2021/08/04 02:39:18;;;;;;;1.70;1.60;;;22.70;56.30;;;;;;5099548;28;20701;-72
2021/08/04 02:41:48;;;;;;;2.00;1.90;;;22.70;56.30;;;;;;5099941;28;20646;-71
2021/08/04 02:44:20;;;;;;;1.73;1.63;;;22.70;56.30;;;;;;5109161;28;20184;-71
2021/08/04 02:46:55;;;;;;;1.60;1.50;;;22.70;56.30;;;;;;5102438;28;20200;-71
2021/08/04 02:49:24;;;;;;;1.57;1.47;;;22.70;56.30;;;;;;5100525;28;20205;-71
2021/08/04 02:51:57;;;;;;;2.63;1.30;;;22.70;56.30;;;;;;5101474;28;20705;-71
2021/08/04 02:54:25;;;;;;;1.70;1.60;;;22.70;56.30;;;;;;5092923;28;20258;-72
2021/08/04 02:56:57;;;;;;;1.77;1.67;;;22.70;56.30;;;;;;5101554;28;20212;-71
2021/08/04 02:59:29;;;;;;;1.60;1.50;;;22.70;56.30;;;;;;5105466;28;20242;-71
2021/08/04 03:02:00;;;;;;;1.70;1.60;;;22.70;56.30;;;;;;5092911;28;20204;-71
2021/08/04 03:04:33;;;;;;;1.60;1.50;;;22.70;56.40;;;;;;5098320;28;20959;-71
2021/08/04 03:07:04;;;;;;;1.60;1.50;;;22.70;56.30;;;;;;5093491;28;20213;-71
2021/08/04 03:09:34;;;;;;;1.87;1.70;;;22.70;56.30;;;;;;5106928;28;20207;-71
2021/08/04 03:12:08;;;;;;;1.60;1.50;;;22.70;56.30;;;;;;5100515;28;20215;-71
2021/08/04 03:14:43;;;;;;;1.67;1.57;;;22.70;56.40;;;;;;5098202;28;20196;-72
2021/08/04 03:17:15;;;;;;;1.30;1.20;;;22.70;56.40;;;;;;5097077;28;20217;-71
2021/08/04 03:19:43;;;;;;;1.47;1.37;;;22.60;56.40;;;;;;5103482;28;20192;-71
2021/08/04 03:22:12;;;;;;;1.77;1.67;;;22.60;56.30;;;;;;5106267;28;20805;-72
2021/08/04 03:24:43;;;;;;;1.47;1.37;;;22.60;56.30;;;;;;5103651;28;20193;-70
2021/08/04 03:27:13;;;;;;;1.90;1.80;;;22.60;56.30;;;;;;5097930;28;20204;-71
2021/08/04 03:29:47;;;;;;;1.60;1.50;;;22.60;56.40;;;;;;5103995;28;20188;-70
2021/08/04 03:32:14;;;;;;;1.50;1.40;;;22.60;56.40;;;;;;5104418;28;20196;-70
2021/08/04 03:34:45;;;;;;;1.93;1.83;;;22.60;56.30;;;;;;5102423;28;20208;-70
2021/08/04 03:37:15;;;;;;;1.70;1.60;;;22.60;56.30;;;;;;5103431;28;20235;-71
2021/08/04 03:39:46;;;;;;;1.80;1.70;;;22.60;56.40;;;;;;5108200;28;20197;-71
2021/08/04 03:42:18;;;;;;;1.87;1.77;;;22.60;56.40;;;;;;5105806;28;20188;-71
2021/08/04 03:44:48;;;;;;;1.60;1.50;;;22.60;56.40;;;;;;5097387;28;20201;-71
2021/08/04 03:47:17;;;;;;;1.80;1.70;;;22.60;56.40;;;;;;5100234;28;20292;-71
2021/08/04 03:49:48;;;;;;;1.50;1.40;;;22.60;56.40;;;;;;5106767;28;20215;-71
2021/08/04 03:52:20;;;;;;;1.60;1.50;;;22.60;56.50;;;;;;5101218;28;20239;-71
2021/08/04 03:54:51;;;;;;;1.40;1.30;;;22.60;56.40;;;;;;5098084;28;20675;-71
2021/08/04 03:57:23;;;;;;;1.70;1.60;;;22.60;56.40;;;;;;5100846;28;20209;-70
2021/08/04 03:59:52;;;;;;;1.70;1.60;;;22.60;56.40;;;;;;5105704;28;20197;-69
2021/08/04 04:02:22;;;;;;;1.50;1.40;;;22.60;56.40;;;;;;5103957;28;20321;-70
2021/08/04 04:04:54;;;;;;;1.80;1.70;;;22.60;56.40;;;;;;5094212;28;20219;-69
2021/08/04 04:07:24;;;;;;;1.70;1.60;;;22.60;56.40;;;;;;5113107;28;20192;-69
2021/08/04 04:09:56;;;;;;;1.70;1.60;;;22.50;56.40;;;;;;5106997;28;20607;-69
2021/08/04 04:12:27;;;;;;;2.03;1.87;;;22.60;56.40;;;;;;5102551;28;20224;-69
2021/08/04 04:14:58;;;;;;;1.60;1.50;;;22.50;56.30;;;;;;5104397;28;20210;-69
2021/08/04 04:17:29;;;;;;;1.60;1.50;;;22.50;56.30;;;;;;5100566;28;20204;-69
2021/08/04 04:19:58;;;;;;;1.50;1.40;;;22.60;56.40;;;;;;5099566;28;20205;-71
2021/08/04 04:22:27;;;;;;;1.80;1.70;;;22.60;56.30;;;;;;5090635;28;20629;-69
2021/08/04 04:24:59;;;;;;;1.57;1.47;;;22.50;56.20;;;;;;5098220;28;20280;-69
2021/08/04 04:27:29;;;;;;;1.53;1.43;;;22.50;56.20;;;;;;5107935;28;20203;-69
2021/08/04 04:30:00;;;;;;;1.80;1.70;;;22.60;56.20;;;;;;5098536;28;20703;-70
2021/08/04 04:32:30;;;;;;;1.83;1.73;;;22.60;56.80;;;;;;5099751;28;20204;-70
2021/08/04 04:34:59;;;;;;;1.73;1.57;;;22.50;56.10;;;;;;5100889;28;20208;-69
2021/08/04 04:37:30;;;;;;;1.70;1.60;;;22.50;56.10;;;;;;5105084;28;20238;-70
2021/08/04 04:39:57;;;;;;;1.70;1.60;;;22.50;56.10;;;;;;5099925;28;20196;-69
2021/08/04 04:42:28;;;;;;;1.90;1.80;;;22.50;56.10;;;;;;5103684;28;20184;-69
2021/08/04 04:44:58;;;;;;;2.03;1.70;;;22.50;56.10;;;;;;5099521;28;20200;-69
2021/08/04 04:47:31;;;;;;;2.00;1.50;;;22.50;56.00;;;;;;5102898;28;20211;-69
2021/08/04 04:50:05;;;;;;;1.93;1.80;;;22.40;56.00;;;;;;5100888;28;20204;-70
2021/08/04 04:52:42;;;;;;;1.70;1.60;;;22.50;56.00;;;;;;5072815;28;20220;-69
2021/08/04 04:55:20;;;;;;;2.10;1.90;;;22.50;56.00;;;;;;5088598;28;20665;-69
2021/08/04 04:57:48;;;;;;;1.87;1.77;;;22.40;55.90;;;;;;5098659;28;20240;-70
2021/08/04 05:00:18;;;;;;;1.80;1.70;;;22.50;56.00;;;;;;5097908;28;20551;-69
2021/08/04 05:02:49;;;;;;;1.70;1.60;;;22.50;56.00;;;;;;5098414;28;20212;-69
2021/08/04 05:05:21;;;;;;;1.67;1.57;;;22.50;56.00;;;;;;5093267;28;20196;-69
2021/08/04 05:07:48;;;;;;;1.80;1.70;;;22.50;55.90;;;;;;5080366;28;20228;-70
2021/08/04 05:10:20;;;;;;;1.73;1.63;;;22.50;55.90;;;;;;5107753;28;20773;-69
2021/08/04 05:12:51;;;;;;;1.97;1.80;;;22.50;55.90;;;;;;5102220;28;20821;-69
2021/08/04 05:15:23;;;;;;;1.70;1.60;;;22.50;55.90;;;;;;5103093;28;20204;-69
2021/08/04 05:17:52;;;;;;;2.00;1.90;;;22.40;55.90;;;;;;5101086;28;20219;-70
2021/08/04 05:20:22;;;;;;;1.70;1.60;;;22.50;55.90;;;;;;5103358;28;20200;-69
2021/08/04 05:22:50;;;;;;;1.60;1.50;;;22.40;55.90;;;;;;5100404;28;20197;-69
2021/08/04 05:25:26;;;;;;;1.90;1.80;;;22.50;56.00;;;;;;5103699;28;20203;-70
2021/08/04 05:27:55;;;;;;;1.90;1.80;;;22.40;55.90;;;;;;5092653;28;20197;-69
2021/08/04 05:30:24;;;;;;;1.80;1.70;;;22.40;55.90;;;;;;5100034;28;20625;-69
2021/08/04 05:32:55;;;;;;;1.50;1.40;;;22.40;55.90;;;;;;5101539;28;20224;-70
2021/08/04 05:35:29;;;;;;;1.83;1.70;;;22.40;55.90;;;;;;5101296;28;20206;-70
2021/08/04 05:37:58;;;;;;;1.57;1.47;;;22.50;56.00;;;;;;5088834;28;20275;-70
2021/08/04 05:40:28;;;;;;;1.53;1.43;;;22.40;55.90;;;;;;5099427;28;20205;-69
2021/08/04 05:42:59;;;;;;;1.60;1.50;;;22.40;55.90;;;;;;5104144;28;20284;-71
2021/08/04 05:45:30;;;;;;;1.60;1.50;;;22.40;55.90;;;;;;5098690;28;20212;-71
2021/08/04 05:48:04;;;;;;;1.57;1.47;;;22.40;55.90;;;;;;5104093;28;20201;-71
2021/08/04 05:50:34;;;;;;;1.20;1.20;;;22.40;55.90;;;;;;5097891;28;20540;-71
2021/08/04 05:53:05;;;;;;;1.40;1.30;;;22.40;55.90;;;;;;4951317;28;4293162;-71
2021/08/04 05:55:37;;;;;;;1.57;1.47;;;22.40;55.90;;;;;;5102086;28;20242;-71
2021/08/04 05:58:07;;;;;;;1.60;1.50;;;22.40;55.90;;;;;;5103541;28;20220;-71
2021/08/04 06:00:39;;;;;;;1.87;1.77;;;22.50;56.00;;;;;;5098254;28;20277;-70
2021/08/04 06:03:10;;;;;;;1.60;1.50;;;22.40;55.90;;;;;;5098404;28;20238;-70
2021/08/04 06:05:38;;;;;;;1.53;1.43;;;22.40;55.90;;;;;;5106884;28;20701;-70
2021/08/04 06:08:10;;;;;;;1.60;1.50;;;22.50;56.00;;;;;;5107060;28;20196;-70
2021/08/04 06:10:47;;;;;;;1.63;1.53;;;22.50;56.00;;;;;;5109923;28;20231;-71
2021/08/04 06:13:15;;;;;;;1.60;1.50;;;22.40;56.00;;;;;;5100239;28;20582;-71
2021/08/04 06:15:53;;;;;;;1.50;1.40;;;22.40;56.00;;;;;;5108808;28;20196;-71
2021/08/04 06:18:23;;;;;;;1.60;1.50;;;22.40;56.00;;;;;;5105913;28;20224;-71
2021/08/04 06:20:54;;;;;;;1.50;1.40;;;22.50;56.10;;;;;;5104605;28;20253;-71
2021/08/04 06:23:24;;;;;;;1.67;1.57;;;22.40;56.00;;;;;;5104885;28;20195;-72
2021/08/04 06:26:02;;;;;;;1.50;1.40;;;22.50;56.00;;;;;;5111766;28;20631;-70
2021/08/04 06:28:43;;;;;;;1.73;1.63;;;22.50;56.10;;;;;;5096872;28;20503;-71
2021/08/04 06:31:13;;;;;;;1.40;1.30;;;22.40;56.00;;;;;;5101744;28;20208;-71
2021/08/04 06:33:42;;;;;;;1.60;1.50;;;22.40;56.00;;;;;;5104017;28;20877;-71
2021/08/04 06:36:09;;;;;;;1.50;1.40;;;22.50;56.10;;;;;;5106218;28;20257;-72
2021/08/04 06:38:41;;;;;;;1.50;1.40;;;22.40;56.00;;;;;;5091228;28;20216;-71
2021/08/04 06:41:09;;;;;;;1.37;1.27;;;22.40;56.00;;;;;;5108520;28;20288;-71
2021/08/04 06:43:38;;;;;;;1.50;1.40;;;22.50;56.10;;;;;;5120175;28;20188;-72
2021/08/04 06:46:13;;;;;;;1.40;1.30;;;22.40;56.00;;;;;;5120305;28;20236;-72
2021/08/04 06:48:45;;;;;;;1.70;1.60;;;22.40;56.00;;;;;;5108282;28;20214;-71
2021/08/04 06:51:16;;;;;;;1.73;1.63;;;22.40;56.00;;;;;;5120930;28;20192;-71
2021/08/04 06:53:50;;;;;;;1.40;1.30;;;22.40;56.00;;;;;;5121473;28;20232;-72
2021/08/04 06:56:25;;;;;;;1.53;1.43;;;22.50;56.10;;;;;;5105938;28;20194;-72
2021/08/04 06:58:53;;;;;;;1.50;1.40;;;22.40;56.10;;;;;;5107407;28;20815;-72
2021/08/04 07:01:21;;;;;;;1.70;1.60;;;22.40;56.10;;;;;;5102900;28;20534;-72
2021/08/04 07:03:54;;;;;;;1.67;1.43;;;22.40;56.00;;;;;;5106786;28;20208;-72
2021/08/04 07:06:24;;;;;;;1.50;1.40;;;22.40;56.70;;;;;;5108745;28;20239;-73
2021/08/04 07:08:56;;;;;;;1.27;1.23;;;22.50;56.10;;;;;;5105597;28;20205;-72
2021/08/04 07:11:28;;;;;;;1.60;1.50;;;22.40;56.70;;;;;;5102394;28;20193;-72
2021/08/04 07:14:03;;;;;;;1.70;1.60;;;22.50;56.10;;;;;;5098913;28;20703;-72
2021/08/04 07:16:34;;;;;;;1.60;1.50;;;22.50;56.10;;;;;;5104880;28;20195;-71
2021/08/04 07:19:06;;;;;;;1.60;1.50;;;22.50;56.10;;;;;;5111443;28;20221;-72
2021/08/04 07:21:38;;;;;;;1.50;1.40;;;22.40;56.00;;;;;;5119622;28;20851;-72
2021/08/04 07:24:19;;;;;;;1.50;1.40;;;22.40;56.00;;;;;;5114205;28;20488;-72
2021/08/04 07:26:53;;;;;;;1.60;1.50;;;22.50;56.10;;;;;;5133018;27;20195;-72
2021/08/04 07:29:24;;;;;;;1.60;1.50;;;22.40;56.00;;;;;;5102381;28;20209;-72
2021/08/04 07:31:53;;;;;;;1.73;1.63;;;22.50;56.00;;;;;;5098125;28;20651;-72
2021/08/04 07:34:30;;;;;;;1.60;1.50;;;22.50;56.00;;;;;;5103961;28;20214;-72
2021/08/04 07:37:02;;;;;;;1.77;1.67;;;22.50;56.10;;;;;;5109057;28;20253;-72
2021/08/04 07:39:32;;;;;;;1.70;1.50;;;22.50;56.00;;;;;;5107407;28;20857;-71
2021/08/04 07:42:03;;;;;;;1.67;1.40;;;22.50;56.00;;;;;;5107211;28;20555;-71
2021/08/04 07:44:35;;;;;;;1.40;1.30;;;22.50;56.00;;;;;;5103605;28;20208;-72
2021/08/04 07:47:07;;;;;;;1.90;1.80;;;22.50;56.00;;;;;;5105532;28;20275;-72
2021/08/04 07:49:38;;;;;;;1.47;1.33;;;22.50;56.60;;;;;;5103108;28;20200;-72
2021/08/04 07:52:07;;;;;;;1.50;1.40;;;22.60;56.10;;;;;;5100700;28;20292;-72
2021/08/04 07:54:39;;;;;;;1.37;1.27;;;22.50;56.00;;;;;;5089790;28;20233;-72
2021/08/04 07:57:09;;;;;;;1.77;1.67;;;22.50;56.00;;;;;;5098818;28;20202;-72
2021/08/04 07:59:40;;;;;;;1.40;1.30;;;22.50;56.70;;;;;;5104482;28;20204;-71
2021/08/04 08:02:11;;;;;;;1.50;1.40;;;22.50;56.10;;;;;;5101261;28;20566;-71
2021/08/04 08:04:43;;;;;;;2.10;1.60;;;22.50;56.00;;;;;;5106007;28;20212;-71
2021/08/04 08:07:15;;;;;;;1.20;1.20;;;22.50;56.10;;;;;;5096431;28;20204;-72
2021/08/04 08:09:44;;;;;;;1.63;1.53;;;22.60;56.20;;;;;;5092374;28;20223;-71
2021/08/04 08:12:14;;;;;;;1.40;1.30;;;22.50;56.10;;;;;;5099709;28;20509;-71
2021/08/04 08:14:45;;;;;;;1.80;1.70;;;22.60;56.20;;;;;;5104962;28;20227;-71
2021/08/04 08:17:16;;;;;;;1.40;1.30;;;22.50;56.10;;;;;;5099720;28;20228;-71
2021/08/04 08:19:43;;;;;;;1.60;1.50;;;22.60;56.20;;;;;;5106248;28;20227;-71
2021/08/04 08:22:15;;;;;;;1.60;1.50;;;22.60;56.30;;;;;;5090435;28;20257;-71
2021/08/04 08:24:48;;;;;;;1.20;1.20;;;22.50;56.20;;;;;;5103350;28;20563;-71
2021/08/04 08:27:19;;;;;;;1.50;1.40;;;22.50;56.20;;;;;;5107889;28;20673;-72
2021/08/04 08:29:50;;;;;;;1.30;1.20;;;22.60;56.40;;;;;;5101110;28;20789;-71
2021/08/04 08:32:26;;;;;;;1.50;1.40;;;22.60;56.40;;;;;;5096344;28;20211;-71
2021/08/04 08:35:01;;;;;;;1.53;1.40;;;22.60;56.40;;;;;;5100733;28;20212;-71
2021/08/04 08:37:32;;;;;;;1.40;1.30;;;22.60;56.40;;;;;;5099560;28;20280;-71
2021/08/04 08:40:15;;;;;;;1.60;1.50;;;22.60;56.40;;;;;;5099440;28;20220;-72
2021/08/04 08:42:47;;;;;;;1.60;1.50;;;22.60;56.50;;;;;;5096541;28;20211;-71
2021/08/04 08:45:16;;;;;;;1.60;1.50;;;22.60;56.40;;;;;;5101771;28;20211;-71
2021/08/04 08:47:48;;;;;;;1.50;1.40;;;22.60;56.40;;;;;;5103112;28;20401;-72
2021/08/04 08:50:25;;;;;;;1.60;1.50;;;22.60;56.40;;;;;;5115679;27;20580;-71
2021/08/04 08:53:01;;;;;;;1.40;1.30;;;22.60;56.50;;;;;;5106063;28;20231;-71
2021/08/04 08:55:36;;;;;;;1.43;1.33;;;22.60;56.40;;;;;;5106250;28;20194;-71
2021/08/04 08:58:10;;;;;;;1.40;1.30;;;22.60;56.40;;;;;;5096674;28;20196;-71
2021/08/04 09:00:42;;;;;;;1.33;1.23;;;22.60;56.40;;;;;;5095509;28;20321;-71
2021/08/04 09:03:14;;;;;;;1.83;1.73;;;22.60;56.40;;;;;;5104170;28;20212;-71
2021/08/04 09:06:03;;;;;;;1.20;1.10;;;22.70;56.50;;;;;;5105812;28;20285;-71
2021/08/04 09:08:37;;;;;;;1.73;1.40;;;22.70;56.40;;;;;;5098472;28;20207;-71
2021/08/04 09:11:16;;;;;;;1.83;1.30;;;22.70;56.40;;;;;;5105458;28;20205;-71
2021/08/04 09:13:48;;;;;;;1.47;1.37;;;22.70;56.40;;;;;;5070036;28;20295;-71
2021/08/04 09:16:21;;;;;;;1.70;1.60;;;22.70;56.40;;;;;;5103321;28;20282;-71
2021/08/04 09:18:55;;;;;;;1.57;1.47;;;22.70;56.40;;;;;;5089795;28;20228;-71
2021/08/04 09:21:25;;;;;;;1.47;1.37;;;22.70;56.40;;;;;;5101293;28;20204;-71
2021/08/04 09:23:57;;;;;;;1.60;1.50;;;22.70;56.40;;;;;;5102539;28;20253;-71
2021/08/04 09:26:29;;;;;;;1.70;1.60;;;22.70;56.40;;;;;;5098790;28;20810;-71
2021/08/04 09:29:05;;;;;;;1.60;1.50;;;22.80;56.40;;;;;;5107818;28;20277;-71
2021/08/04 09:31:56;;;;;;;1.97;1.77;;;22.70;56.30;;;;;;5099020;28;20234;-71
2021/08/04 09:34:42;;;;;;;1.80;1.70;;;22.80;56.30;;;;;;5105237;28;20224;-71
2021/08/04 09:37:19;;;;;;;1.50;1.40;;;22.80;56.40;;;;;;5104000;28;20569;-71
2021/08/04 09:39:58;;;;;;;1.60;1.50;;;22.80;56.40;;;;;;5107916;28;20299;-71
2021/08/04 09:42:49;;;;;;;1.60;1.50;;;22.80;56.40;;;;;;5110383;28;20252;-72
2021/08/04 09:45:40;;;;;;;1.50;1.40;;;22.80;56.40;;;;;;5101603;28;20204;-71
2021/08/04 09:48:26;;;;;;;1.40;1.30;;;22.80;56.40;;;;;;5102322;28;20271;-71
2021/08/04 09:51:02;;;;;;;1.97;1.40;;;22.80;56.30;;;;;;5109449;28;20226;-71
2021/08/04 09:53:39;;;;;;;1.47;1.37;;;22.80;56.30;;;;;;5106871;28;20253;-71
2021/08/04 09:56:22;;;;;;;1.43;1.33;;;22.90;56.40;;;;;;5103749;28;20196;-71
2021/08/04 09:58:54;;;;;;;1.63;1.50;;;22.90;56.40;;;;;;5100523;28;20251;-71
2021/08/04 10:01:47;;;;;;;1.87;1.40;;;22.80;56.30;;;;;;5109713;28;20200;-72
2021/08/04 10:04:20;;;;;;;1.43;1.33;;;22.90;56.40;;;;;;5102741;28;20658;-71
2021/08/04 10:06:49;;;;;;;1.60;1.50;;;22.90;56.30;;;;;;5102189;28;20193;-71
2021/08/04 10:09:22;;;;;;;1.43;1.33;;;22.90;56.30;;;;;;5104229;28;20208;-71
2021/08/04 10:12:09;;;;;;;2.00;1.80;;;22.90;56.30;;;;;;5110442;28;20272;-71
2021/08/04 10:14:39;;;;;;;1.60;1.50;;;23.00;56.40;;;;;;5105050;28;20804;-71
2021/08/04 10:17:08;;;;;;;1.60;1.50;;;22.90;56.30;;;;;;5102777;28;20196;-71
2021/08/04 10:19:39;;;;;;;1.53;1.43;;;23.00;56.40;;;;;;5110372;28;20260;-71
2021/08/04 10:22:09;;;;;;;1.60;1.50;;;23.00;56.40;;;;;;5105010;28;20207;-71
2021/08/04 10:24:43;;;;;;;1.57;1.47;;;23.00;56.40;;;;;;5098440;28;20246;-71
2021/08/04 10:27:10;;;;;;;1.50;1.40;;;23.00;56.30;;;;;;5101767;28;20197;-71
2021/08/04 10:29:42;;;;;;;1.50;1.40;;;23.00;56.40;;;;;;5104121;28;20200;-71
2021/08/04 10:32:22;;;;;;;1.83;1.33;;;23.00;56.30;;;;;;5099630;28;20213;-71
2021/08/04 10:34:54;;;;;;;1.50;1.40;;;23.00;56.30;;;;;;5109373;28;20618;-71
2021/08/04 10:37:24;;;;;;;1.70;1.60;;;23.00;57.00;;;;;;5099699;28;20232;-71
2021/08/04 10:39:56;;;;;;;1.73;1.63;;;23.10;56.40;;;;;;5093640;28;20257;-71
2021/08/04 10:42:47;;;;;;;2.00;1.80;;;23.10;56.40;;;;;;5101331;28;20197;-71
2021/08/04 10:45:29;;;;;;;1.63;1.53;;;23.10;56.30;;;;;;5108078;28;20197;-71
2021/08/04 10:48:23;;;;;;;1.60;1.50;;;23.10;56.40;;;;;;5106382;28;20228;-71
2021/08/04 10:51:18;;;;;;;2.03;1.90;;;23.10;56.50;;;;;;5100855;28;20205;-71
2021/08/04 10:54:13;;;;;;;2.00;1.90;;;23.20;56.60;;;;;;5074655;28;20252;-71
2021/08/04 10:56:57;;;;;;;2.27;2.07;;;23.20;56.60;;;;;;5101945;28;20304;-71
2021/08/04 10:59:40;;;;;;;2.27;1.83;;;23.20;56.60;;;;;;5106621;28;20289;-71
2021/08/04 11:02:18;;;;;;;1.77;1.67;;;23.20;56.70;;;;;;5105601;28;20579;-71
2021/08/04 11:04:54;;;;;;;1.70;1.60;;;23.20;56.70;;;;;;5106794;28;20647;-71
2021/08/04 11:07:25;;;;;;;1.77;1.67;;;23.20;56.80;;;;;;5108797;28;20227;-71
2021/08/04 11:09:58;;;;;;;1.67;1.57;;;23.30;56.80;;;;;;5102420;27;20219;-71
2021/08/04 11:12:48;;;;;;;1.70;1.60;;;23.30;56.90;;;;;;5101364;28;20529;-71
2021/08/04 11:15:28;;;;;;;1.77;1.67;;;23.30;57.00;;;;;;5099635;28;20256;-71
2021/08/04 11:18:07;;;;;;;1.50;1.40;;;23.30;57.10;;;;;;5108051;28;20235;-71
2021/08/04 11:21:14;;;;;;;2.20;2.10;;;23.30;57.00;;;;;;5103342;28;20714;-72
2021/08/04 11:23:49;;;;;;;1.83;1.63;;;23.40;57.00;;;;;;5097408;28;20533;-71
2021/08/04 11:26:38;;;;;;;2.10;2.00;;;23.40;57.20;;;;;;5108806;28;20185;-71
2021/08/04 11:29:13;;;;;;;1.80;1.70;;;23.40;57.30;;;;;;5100792;28;20232;-72
2021/08/04 11:32:19;;;;;;;1.80;1.70;;;23.40;57.30;;;;;;5096763;28;20196;-71
2021/08/04 11:34:48;;;;;;;1.90;1.80;;;23.40;57.30;;;;;;5107429;28;20215;-71
2021/08/04 11:37:16;;;;;;;1.80;1.70;;;23.50;57.40;;;;;;5106287;28;20670;-71
2021/08/04 11:40:02;;;;;;;1.80;1.70;;;23.50;57.80;;;;;;5118905;27;20228;-71
2021/08/04 11:42:34;;;;;;;1.50;1.40;;;23.50;57.60;;;;;;5100258;28;20653;-72
2021/08/04 11:45:15;;;;;;;1.80;1.70;;;23.50;57.50;;;;;;5104640;28;20601;-72
2021/08/04 11:47:49;;;;;;;1.90;1.80;;;23.60;57.60;;;;;;5101211;27;20570;-71
2021/08/04 11:50:19;;;;;;;1.57;1.47;;;23.60;57.70;;;;;;5088939;28;20637;-71
2021/08/04 11:52:51;;;;;;;1.60;1.50;;;23.60;57.60;;;;;;5102275;28;20274;-71
2021/08/04 11:55:24;;;;;;;2.00;1.90;;;23.60;57.70;;;;;;5105920;28;20212;-72
2021/08/04 11:57:57;;;;;;;2.17;2.00;;;23.60;57.60;;;;;;5102180;28;20536;-72
2021/08/04 12:00:28;;;;;;;2.00;1.90;;;23.70;57.80;;;;;;5104706;28;20236;-72
2021/08/04 12:03:17;;;;;;;2.37;2.17;;;23.70;57.80;;;;;;5100993;28;20192;-72
2021/08/04 12:05:49;;;;;;;1.87;1.77;;;23.70;57.80;;;;;;5088532;28;20200;-72
2021/08/04 12:08:29;;;;;;;1.70;1.60;;;23.70;57.60;;;;;;5092198;28;20231;-72
2021/08/04 12:11:10;;;;;;;1.90;1.80;;;23.70;57.70;;;;;;5099470;28;20280;-71
2021/08/04 12:14:02;;;;;;;1.70;1.60;;;23.70;57.60;;;;;;5089826;28;20216;-71
2021/08/04 12:16:41;;;;;;;2.03;1.90;;;23.80;57.60;;;;;;5098549;28;20230;-72
2021/08/04 12:19:25;;;;;;;1.87;1.77;;;23.80;57.70;;;;;;5087568;28;20212;-71
2021/08/04 12:21:53;;;;;;;1.90;1.80;;;23.80;57.70;;;;;;5102887;28;20196;-71
2021/08/04 12:24:26;;;;;;;1.80;1.70;;;23.80;57.70;;;;;;5099452;28;20197;-71
2021/08/04 12:26:56;;;;;;;1.73;1.63;;;23.80;57.60;;;;;;5105173;28;20667;-71
2021/08/04 12:29:28;;;;;;;1.90;1.80;;;23.80;58.20;;;;;;5100841;28;20211;-71
2021/08/04 12:32:07;;;;;;;1.90;1.80;;;23.80;57.60;;;;;;5092962;28;20216;-71
2021/08/04 12:35:00;;;;;;;1.80;1.70;;;23.80;57.60;;;;;;5102985;28;20224;-71
2021/08/04 12:37:31;;;;;;;1.67;1.57;;;23.90;57.70;;;;;;5107256;28;20263;-71
2021/08/04 12:40:14;;;;;;;1.90;1.80;;;23.90;57.70;;;;;;5099447;28;20208;-71
2021/08/04 12:42:45;;;;;;;1.80;1.70;;;23.90;57.70;;;;;;5105390;28;20196;-72
2021/08/04 12:45:26;;;;;;;2.80;2.60;;;23.90;57.60;;;;;;5106815;28;20191;-71
2021/08/04 12:48:02;;;;;;;2.30;2.10;;;23.90;57.70;;;;;;5101466;28;20208;-71
2021/08/04 12:50:56;;;;;;;2.10;2.00;;;23.90;57.70;;;;;;5096124;28;20601;-71
2021/08/04 12:53:36;;;;;;;2.27;2.00;;;23.90;57.60;;;;;;5101900;28;20244;-71
2021/08/04 12:56:12;;;;;;;2.13;1.93;;;23.90;57.60;;;;;;5104420;28;20643;-71
2021/08/04 12:59:02;;;;;;;1.80;1.70;;;24.00;57.70;;;;;;5098028;28;20200;-72
2021/08/04 13:01:39;;;;;;;2.10;2.00;;;24.00;57.60;;;;;;5103737;28;20196;-71
2021/08/04 13:04:29;;;;;;;2.33;2.13;;;24.00;57.60;;;;;;5104183;28;20184;-71
2021/08/04 13:07:08;;;;;;;2.10;2.00;;;24.00;57.60;;;;;;5098977;28;20282;-71
2021/08/04 13:09:42;;;;;;;2.73;2.53;;;24.00;57.70;;;;;;5087438;28;20520;-72
2021/08/04 13:12:33;;;;;;;2.60;2.40;;;24.00;57.70;;;;;;5099656;28;20558;-71
2021/08/04 13:15:17;;;;;;;2.20;2.10;;;24.00;57.70;;;;;;5111133;28;20287;-71
2021/08/04 13:17:57;;;;;;;2.17;2.07;;;24.10;57.70;;;;;;5098363;28;20207;-71
2021/08/04 13:20:38;;;;;;;2.13;2.03;;;24.10;57.70;;;;;;5100030;28;20629;-71
2021/08/04 13:23:16;;;;;;;2.80;2.60;;;24.10;57.70;;;;;;5101370;28;20184;-71
2021/08/04 13:25:58;;;;;;;2.50;2.30;;;24.10;57.70;;;;;;5106802;28;20196;-71
2021/08/04 13:28:43;;;;;;;2.63;2.20;;;24.10;57.70;;;;;;5098033;28;20197;-71